< < Back
Terminal Aerodrome Forecast


Current Version              Previous Versions:   1  2  3  4  5  6  7  8  9  

Terminal Aerodrome Forecast

541
FTUS42 KFFC 251136
TAFAHN
TAF
KAHN 251136Z 2512/2612 09005KT P6SM BKN025 BKN050
     FM251500 13006KT P6SM BKN035
     FM252100 14009KT 6SM -SHRA BKN035 PROB30 2521/2601 3SM -TSRA
      BKN012CB
     FM260100 14007KT P6SM SCT025 BKN040
     FM260800 15006KT P6SM BKN009=

Latest METAR

757
SAUS70 KWBC 251300
MTRAHN
METAR KAHN 251251Z 10006KT 10SM SCT023 BKN028 OVC055 21/17 A3031 RMK AO2
SLP260 T02060167


USA.gov is the U.S. government's official web portal to all federal, state and local government web resources and services.